Etusivu
METAR-TAF:

METAR-TAF

Lentoasemat :

Loreto, Meksiko

Leveyspiiri: 26-01N, Pituuspiiri: 111-21W, korkeus merenpinnasta: 15 m

Tämänhetkinen sää

Tämä raportti tehtiin 1 tunti ja 15 minuuttia sitten, kello 22.40 UTC
Tuuli 10 kn lännestä/lounaasta
Lämpötila 34°C
Kosteus 34%
Ilmanpaine 1008 hPa
Näkyvyys: 16.1 km
Muutamia pilviä 24000 ft:n korkeudessa

METAR: MMLT 152240Z 25010KT 10SM FEW240 34/16 A2977 RMK 8/001

Aika: 17:55 (23:55 UTC)

Sääennuste

Tämä raportti tehtiin 6 tuntia ja 58 minuuttia sitten, kello 16.57 UTC
Ennuste voimassa 15. päivästä klo 18 UTC - 16. päivään klo 18 UTC
Tuuli 8 kn etelästä/kaakosta
Näkyvyys: 10 km
Hajanaisia pilviä 25000 ft:n korkeudessa
Tulossa
16. päivästä klo 02 UTC - 16. päivään klo 03 UTC
Tuuli 5 kn luoteesta
selkeää
From 16. päivästä klo 1700 UTC
Tuuli 8 kn etelästä
Näkyvyys: 10 km
selkeää

TAF: MMLT 151657Z 1518/1618 15008KT P6SM SCT250 BECMG 1602/1603 32005KT SKC FM161700 17008KT P6SM SKC

Säähavainnot ja -ennusteet yli 4000 lentoasemalta (METAR- ja TAF-raportit).

Käytössä olevat sääasemat on merkitty karttaan keltaisilla ja punaisilla pisteillä.

Aseta hiiri pisteen päälle nähdäksesi sääaseman nimen.

Klikkaa sitten nähdäksesi säähavainnot ja -ennusteet.

Kartan vaihtaminen: klikkaa mustalla rastilla varustettuja vihreitä pisteitä, niin voit zoomata sisään; viivalla varustettua vihreää pistettä, niin voit zoomata ulos tai vihreitä nuolia, niin pääset viereisille kartoille.


METAR-TAF: